Time;durP1;ratioP1;P1;durP2;ratioP2;P2;SDS_P1;SDS_P2;PMS_P1;PMS_P2;Temp;Humidity;BMP_temperature;BMP_pressure;BME280_temperature;BME280_humidity;BME280_pressure;Samples;Min_cycle;Max_cycle;Signal;HPM_P1;HPM_P2
2023/10/24 00:01:05;;;;;;;12.23;3.88;;;;;;;15.47;53.10;95175.81;5009388;28;20028;-78
2023/10/24 00:03:30;;;;;;;13.50;3.90;;;;;;;15.46;53.25;95175.06;5007276;28;20451;-78
2023/10/24 00:05:56;;;;;;;11.23;3.50;;;;;;;15.41;53.17;95175.66;4999244;28;20033;-79
2023/10/24 00:08:22;;;;;;;16.25;4.55;;;;;;;15.37;53.20;95178.59;4999900;28;20029;-80
2023/10/24 00:10:47;;;;;;;15.52;4.82;;;;;;;15.31;53.48;95174.91;5010136;28;20113;-78
2023/10/24 00:13:13;;;;;;;14.20;3.97;;;;;;;15.29;53.39;95171.81;5025125;28;20114;-79
2023/10/24 00:15:38;;;;;;;9.55;4.20;;;;;;;15.29;53.25;95171.81;5030034;28;20447;-80
2023/10/24 00:18:04;;;;;;;11.52;4.40;;;;;;;15.22;53.47;95169.38;4997265;28;20029;-78
2023/10/24 00:20:29;;;;;;;11.27;3.95;;;;;;;15.20;53.52;95162.78;5030381;28;20025;-78
2023/10/24 00:22:55;;;;;;;12.50;3.78;;;;;;;15.11;53.77;95177.38;5029683;28;20082;-77
2023/10/24 00:25:20;;;;;;;10.98;3.80;;;;;;;15.09;53.92;95166.00;5013341;28;20024;-79
2023/10/24 00:27:46;;;;;;;11.63;4.22;;;;;;;15.04;53.94;95172.91;5029700;28;20029;-78
2023/10/24 00:30:11;;;;;;;12.65;4.40;;;;;;;15.02;54.11;95169.03;5008819;28;20041;-81
2023/10/24 00:32:37;;;;;;;8.75;3.78;;;;;;;15.01;54.05;95178.59;5010116;28;20034;-79
2023/10/24 00:35:03;;;;;;;12.40;3.47;;;;;;;14.94;54.20;95170.59;5006023;28;20569;-80
2023/10/24 00:37:29;;;;;;;14.20;3.78;;;;;;;14.93;54.20;95171.81;5029969;28;20033;-80
2023/10/24 00:39:55;;;;;;;9.63;3.38;;;;;;;14.89;54.38;95160.88;5029271;28;20028;-80
2023/10/24 00:42:20;;;;;;;11.82;4.22;;;;;;;14.91;54.26;95174.25;5013768;28;20321;-80
2023/10/24 00:44:46;;;;;;;11.57;3.22;;;;;;;14.87;54.12;95180.72;5007700;28;20171;-80
2023/10/24 00:47:13;;;;;;;12.15;3.45;;;;;;;14.85;54.18;95165.78;5029822;28;20116;-80
2023/10/24 00:49:38;;;;;;;10.15;3.25;;;;;;;14.83;54.15;95169.03;5009898;28;20040;-80
2023/10/24 00:52:04;;;;;;;10.23;3.55;;;;;;;14.80;54.50;95169.19;5013334;28;20045;-80
2023/10/24 00:54:32;;;;;;;12.50;3.33;;;;;;;14.68;54.40;95151.50;5009325;28;20032;-80
2023/10/24 00:56:57;;;;;;;13.57;3.85;;;;;;;14.76;54.32;95163.03;5003987;28;20523;-81
2023/10/24 00:59:24;;;;;;;15.00;3.78;;;;;;;14.76;54.32;95165.78;5006643;28;20061;-80
2023/10/24 01:01:49;;;;;;;14.07;3.50;;;;;;;14.71;54.42;95160.88;5006874;28;20116;-79
2023/10/24 01:04:15;;;;;;;11.05;3.97;;;;;;;14.67;54.55;95158.22;5013240;28;20120;-80
2023/10/24 01:06:40;;;;;;;12.13;2.95;;;;;;;14.66;54.59;95165.00;5012332;28;20063;-80
2023/10/24 01:09:07;;;;;;;12.38;3.65;;;;;;;14.65;54.36;95157.94;5008479;28;20029;-80
2023/10/24 01:11:33;;;;;;;10.88;3.90;;;;;;;14.63;54.43;95171.47;5029383;28;20025;-80
2023/10/24 01:14:01;;;;;;;12.65;3.58;;;;;;;14.59;54.14;95163.28;5012900;28;20039;-78
2023/10/24 01:16:28;;;;;;;8.50;3.53;;;;;;;14.58;54.53;95164.53;5030250;28;20083;-81
2023/10/24 01:18:53;;;;;;;13.45;4.30;;;;;;;14.53;54.50;95161.59;5012465;28;20029;-79
2023/10/24 01:21:19;;;;;;;13.85;3.80;;;;;;;14.53;54.57;95165.13;5029285;28;20480;-80
2023/10/24 01:23:45;;;;;;;8.98;3.40;;;;;;;14.48;54.71;95160.19;5012478;28;20056;-80
2023/10/24 01:26:12;;;;;;;12.55;3.47;;;;;;;14.45;54.64;95160.28;5013000;28;20136;-80
2023/10/24 01:28:38;;;;;;;17.33;3.67;;;;;;;14.41;54.80;95157.69;4995029;28;20021;-80
2023/10/24 01:31:03;;;;;;;13.77;4.00;;;;;;;14.33;54.87;95154.41;5012898;28;20077;-80
2023/10/24 01:33:29;;;;;;;9.52;3.55;;;;;;;14.33;55.08;95161.94;5012777;28;20371;-80
2023/10/24 01:35:57;;;;;;;14.35;3.80;;;;;;;14.30;54.93;95160.13;5028877;28;20037;-80
2023/10/24 01:38:23;;;;;;;12.73;4.45;;;;;;;14.29;55.00;95156.56;5012884;28;20033;-80
2023/10/24 01:40:48;;;;;;;14.55;4.18;;;;;;;14.24;55.01;95157.16;5012291;28;20041;-80
2023/10/24 01:43:13;;;;;;;12.38;4.30;;;;;;;14.19;55.18;95155.00;4996702;28;20470;-80
2023/10/24 01:45:40;;;;;;;11.50;3.42;;;;;;;14.20;55.18;95153.78;5012407;28;20044;-80
2023/10/24 01:48:06;;;;;;;14.43;3.95;;;;;;;14.18;55.25;95155.47;5043392;28;20025;-80
2023/10/24 01:50:31;;;;;;;14.98;4.78;;;;;;;14.08;55.36;95155.41;5042983;28;20349;-80
2023/10/24 01:52:58;;;;;;;9.63;4.13;;;;;;;14.12;54.95;95149.75;5014766;28;20033;-80
2023/10/24 01:55:23;;;;;;;10.25;3.60;;;;;;;14.05;55.44;95148.03;5014102;28;20436;-79
2023/10/24 01:57:50;;;;;;;11.63;3.42;;;;;;;14.04;55.23;95154.78;5012110;28;20017;-79
2023/10/24 02:00:15;;;;;;;10.85;3.42;;;;;;;14.00;55.27;95143.09;5047108;28;20021;-80
2023/10/24 02:02:41;;;;;;;11.55;3.83;;;;;;;13.96;55.29;95150.00;5011450;28;20087;-80
2023/10/24 02:05:07;;;;;;;11.52;4.13;;;;;;;14.02;55.21;95160.00;5028781;28;20048;-79
2023/10/24 02:07:32;;;;;;;9.50;3.88;;;;;;;14.00;55.07;95154.16;5028547;28;20092;-80
2023/10/24 02:09:57;;;;;;;11.38;4.20;;;;;;;13.95;55.41;95148.44;5011460;28;20036;-79
2023/10/24 02:12:24;;;;;;;7.97;3.78;;;;;;;13.87;55.49;95147.16;5011801;28;20040;-79
2023/10/24 02:14:51;;;;;;;13.00;4.15;;;;;;;13.85;55.70;95142.09;5000256;28;20122;-80
2023/10/24 02:17:16;;;;;;;8.65;3.67;;;;;;;13.81;55.61;95147.75;5011927;28;20120;-79
2023/10/24 02:19:42;;;;;;;8.15;3.15;;;;;;;13.81;55.70;95147.75;5004931;28;20170;-79
2023/10/24 02:22:07;;;;;;;6.75;3.38;;;;;;;13.75;55.76;95146.81;5008397;28;20041;-79
2023/10/24 02:24:33;;;;;;;11.55;4.30;;;;;;;13.73;55.99;95152.03;5010980;28;20036;-79
2023/10/24 02:26:59;;;;;;;10.68;3.30;;;;;;;13.67;55.99;95156.59;5028194;28;20094;-81
2023/10/24 02:29:24;;;;;;;11.85;3.72;;;;;;;13.69;55.89;95145.84;5011726;28;20084;-79
2023/10/24 02:31:50;;;;;;;12.35;3.75;;;;;;;13.63;55.92;95146.88;4995279;28;20071;-79
2023/10/24 02:34:16;;;;;;;13.05;3.70;;;;;;;13.62;55.90;95148.88;5006039;28;20026;-79
2023/10/24 02:36:42;;;;;;;7.43;3.28;;;;;;;13.60;56.06;95153.34;4996268;28;20080;-79
2023/10/24 02:39:08;;;;;;;10.55;3.95;;;;;;;13.55;56.15;95151.91;5004707;28;20443;-79
2023/10/24 02:41:33;;;;;;;15.30;3.50;;;;;;;13.57;55.87;95152.22;5027080;28;20404;-79
2023/10/24 02:43:58;;;;;;;13.05;4.05;;;;;;;13.53;56.15;95166.19;5027653;28;20048;-78
2023/10/24 02:46:24;;;;;;;11.40;3.70;;;;;;;13.46;55.93;95158.13;5027555;28;20047;-78
2023/10/24 02:48:49;;;;;;;13.70;3.90;;;;;;;13.48;55.64;95163.22;5007870;28;20083;-78
2023/10/24 02:51:15;;;;;;;8.70;3.70;;;;;;;13.44;55.80;95166.13;5005416;28;20037;-78
2023/10/24 02:53:40;;;;;;;8.38;4.25;;;;;;;13.51;55.89;95159.56;5007508;28;20110;-78
2023/10/24 02:56:05;;;;;;;13.35;3.90;;;;;;;13.48;55.61;95168.75;5010413;28;20033;-80
2023/10/24 02:58:31;;;;;;;10.63;4.07;;;;;;;13.48;55.51;95174.28;5027427;28;20032;-80
2023/10/24 03:01:03;;;;;;;9.90;4.43;;;;;;;13.41;55.85;95169.00;5027070;28;20049;-80
2023/10/24 03:03:28;;;;;;;12.10;3.70;;;;;;;13.43;55.88;95172.09;5027429;28;20032;-80
2023/10/24 03:05:54;;;;;;;12.20;3.75;;;;;;;13.44;55.86;95173.63;5010704;28;20090;-80
2023/10/24 03:08:20;;;;;;;10.02;3.85;;;;;;;13.38;55.94;95178.19;5027218;28;20048;-79
2023/10/24 03:10:45;;;;;;;13.25;3.63;;;;;;;13.33;56.58;95174.00;5026667;28;20119;-80
2023/10/24 03:13:11;;;;;;;14.55;4.60;;;;;;;13.40;56.33;95178.50;5011447;28;20075;-80
2023/10/24 03:15:36;;;;;;;8.88;3.67;;;;;;;13.41;56.44;95185.56;5009714;28;20036;-79
2023/10/24 03:18:02;;;;;;;13.45;4.13;;;;;;;13.35;56.85;95188.13;5010750;28;20040;-80
2023/10/24 03:20:27;;;;;;;10.23;3.92;;;;;;;13.32;56.75;95183.53;4993996;28;20028;-79
2023/10/24 03:22:54;;;;;;;9.95;4.18;;;;;;;13.33;56.66;95182.28;5010834;28;20450;-80
2023/10/24 03:25:22;;;;;;;12.27;3.85;;;;;;;13.29;56.58;95192.69;5010260;28;20044;-79
2023/10/24 03:27:48;;;;;;;9.70;4.32;;;;;;;13.26;56.50;95190.84;5009952;28;20033;-80
2023/10/24 03:30:14;;;;;;;12.23;4.10;;;;;;;13.23;56.60;95194.47;5011011;28;20411;-80
2023/10/24 03:32:40;;;;;;;11.52;4.30;;;;;;;13.21;56.72;95189.41;5010467;28;20494;-78
2023/10/24 03:35:06;;;;;;;11.68;3.53;;;;;;;13.22;56.59;95201.22;5007256;28;20053;-78
2023/10/24 03:37:31;;;;;;;8.68;4.47;;;;;;;13.18;57.06;95195.00;5007201;28;20108;-78
2023/10/24 03:39:57;;;;;;;10.30;4.13;;;;;;;13.19;57.47;95202.06;5007439;28;20437;-78
2023/10/24 03:42:23;;;;;;;12.05;4.28;;;;;;;13.16;57.55;95201.00;5026297;28;20087;-78
2023/10/24 03:44:48;;;;;;;9.50;3.88;;;;;;;13.14;57.35;95206.19;5011010;28;20022;-79
2023/10/24 03:47:14;;;;;;;9.95;3.85;;;;;;;13.09;57.24;95203.22;5011407;28;20033;-79
2023/10/24 03:49:40;;;;;;;13.77;3.70;;;;;;;13.10;56.70;95202.00;5014452;28;20037;-77
2023/10/24 03:52:05;;;;;;;10.13;3.58;;;;;;;13.05;56.79;95200.59;5030765;28;20025;-78
2023/10/24 03:54:33;;;;;;;11.65;3.88;;;;;;;13.07;56.68;95208.41;5014272;28;20028;-79
2023/10/24 03:57:00;;;;;;;8.52;3.95;;;;;;;13.02;56.77;95199.50;5014528;28;20037;-78
2023/10/24 03:59:27;;;;;;;12.40;3.67;;;;;;;12.96;56.91;95209.56;5030933;28;20033;-78
2023/10/24 04:01:52;;;;;;;16.08;3.75;;;;;;;12.97;57.27;95213.09;5030943;28;20035;-79
2023/10/24 04:04:18;;;;;;;12.63;4.07;;;;;;;12.96;56.91;95204.06;5014186;28;20377;-78
2023/10/24 04:06:43;;;;;;;11.80;3.80;;;;;;;12.90;57.21;95210.56;5014155;28;20033;-80
2023/10/24 04:09:09;;;;;;;15.35;4.05;;;;;;;12.90;57.20;95208.59;5013962;28;20144;-79
2023/10/24 04:11:34;;;;;;;11.75;4.05;;;;;;;12.84;57.29;95206.81;5013698;28;20480;-79
2023/10/24 04:14:00;;;;;;;10.10;4.60;;;;;;;12.85;57.60;95216.66;5014213;28;20028;-79
2023/10/24 04:16:26;;;;;;;12.32;4.95;;;;;;;12.79;57.68;95199.09;5013512;28;20021;-78
2023/10/24 04:18:51;;;;;;;14.93;4.38;;;;;;;12.80;57.70;95206.19;5014268;28;20407;-80
2023/10/24 04:21:17;;;;;;;11.32;4.38;;;;;;;12.80;57.48;95211.69;5029851;28;20033;-79
2023/10/24 04:23:44;;;;;;;11.13;5.35;;;;;;;12.82;57.37;95212.78;5030900;28;20025;-80
2023/10/24 04:26:10;;;;;;;11.98;5.32;;;;;;;12.76;57.42;95223.63;5013912;28;20024;-80
2023/10/24 04:28:38;;;;;;;9.52;5.00;;;;;;;12.77;57.40;95222.38;5030272;28;20021;-80
2023/10/24 04:31:03;;;;;;;10.07;4.93;;;;;;;12.74;57.47;95219.75;5013399;28;20033;-79
2023/10/24 04:33:29;;;;;;;15.35;5.68;;;;;;;12.73;57.48;95220.97;5013172;28;20098;-79
2023/10/24 04:35:54;;;;;;;13.55;5.88;;;;;;;12.72;57.65;95220.19;5013795;28;20049;-79
2023/10/24 04:38:20;;;;;;;13.88;6.13;;;;;;;12.70;57.94;95230.13;5013269;28;20033;-79
2023/10/24 04:40:53;;;;;;;15.32;5.70;;;;;;;12.69;58.15;95236.88;5014135;28;20542;-80
2023/10/24 04:43:19;;;;;;;23.58;6.63;;;;;;;12.64;58.26;95235.44;5013446;28;20550;-80
2023/10/24 04:45:44;;;;;;;15.45;6.00;;;;;;;12.64;58.04;95235.44;5013453;28;20067;-80
2023/10/24 04:48:10;;;;;;;25.85;7.03;;;;;;;12.62;58.17;95237.09;5013380;28;20432;-80
2023/10/24 04:50:38;;;;;;;12.93;6.63;;;;;;;12.62;58.33;95237.09;5029178;28;20039;-81
2023/10/24 04:53:06;;;;;;;16.80;6.15;;;;;;;12.62;58.46;95243.38;5029928;28;20041;-82
2023/10/24 04:55:31;;;;;;;12.18;6.03;;;;;;;12.64;58.20;95245.69;5017323;28;20037;-79
2023/10/24 04:57:57;;;;;;;12.65;5.65;;;;;;;12.65;58.46;95245.25;5013385;28;20423;-79
2023/10/24 05:00:24;;;;;;;10.98;4.88;;;;;;;12.56;58.60;95244.38;5039976;28;20059;-79
2023/10/24 05:02:50;;;;;;;17.13;6.45;;;;;;;12.65;58.49;95259.03;5025988;28;20028;-80
2023/10/24 05:05:16;;;;;;;13.70;5.57;;;;;;;12.65;58.36;95261.81;5019677;28;20022;-82
2023/10/24 05:07:41;;;;;;;14.68;5.75;;;;;;;12.62;58.20;95251.66;4999960;28;20091;-81
2023/10/24 05:10:07;;;;;;;17.08;6.00;;;;;;;12.58;58.27;95255.75;5028713;28;20031;-82
2023/10/24 05:12:32;;;;;;;15.00;6.10;;;;;;;12.59;58.19;95262.81;5009112;28;20029;-81
2023/10/24 05:14:58;;;;;;;12.50;5.40;;;;;;;12.59;58.16;95257.28;5026426;28;20770;-82
2023/10/24 05:17:24;;;;;;;13.10;6.25;;;;;;;12.61;58.22;95263.88;5012296;28;20484;-81
2023/10/24 05:19:49;;;;;;;14.38;5.15;;;;;;;12.51;58.98;95258.72;5009498;28;20404;-82
2023/10/24 05:22:14;;;;;;;20.35;6.93;;;;;;;12.57;58.61;95268.75;5011579;28;20109;-81
2023/10/24 05:24:40;;;;;;;15.63;5.80;;;;;;;12.64;58.47;95273.28;5029045;28;20431;-79
2023/10/24 05:27:06;;;;;;;15.93;5.88;;;;;;;12.63;58.50;95275.28;5012813;28;20039;-81
2023/10/24 05:29:32;;;;;;;20.92;6.55;;;;;;;12.64;58.63;95267.75;5011932;28;20116;-80
2023/10/24 05:31:58;;;;;;;12.77;6.35;;;;;;;12.70;58.58;95277.78;5029129;28;20132;-80
2023/10/24 05:34:29;;;;;;;15.65;5.78;;;;;;;12.69;58.48;95281.78;5005649;28;20583;-80
2023/10/24 05:36:55;;;;;;;14.85;7.43;;;;;;;12.76;58.32;95286.28;5012845;28;20032;-81
2023/10/24 05:39:20;;;;;;;13.82;5.75;;;;;;;12.73;58.25;95282.44;5012402;28;20091;-80
2023/10/24 05:41:49;;;;;;;18.27;6.10;;;;;;;12.74;58.36;95292.25;5012360;28;20022;-78
2023/10/24 05:44:15;;;;;;;11.98;5.90;;;;;;;12.79;58.33;95287.38;5008988;28;20395;-79
2023/10/24 05:46:40;;;;;;;15.43;6.25;;;;;;;12.82;58.29;95287.28;5012000;28;20025;-81
2023/10/24 05:49:06;;;;;;;19.80;7.20;;;;;;;12.85;58.15;95288.41;5012687;28;20029;-82
2023/10/24 05:51:32;;;;;;;19.95;6.45;;;;;;;12.90;58.17;95291.38;5027301;28;20033;-82
2023/10/24 05:53:58;;;;;;;18.60;6.95;;;;;;;12.94;58.16;95286.47;5028629;28;20090;-81
2023/10/24 05:56:23;;;;;;;18.88;7.18;;;;;;;13.00;58.36;95281.94;5006768;28;20423;-82
2023/10/24 05:58:49;;;;;;;24.02;6.28;;;;;;;13.11;58.68;95284.34;5022605;28;20044;-81
2023/10/24 06:01:14;;;;;;;16.58;6.38;;;;;;;13.14;59.40;95289.00;5011612;28;20033;-82
2023/10/24 06:03:40;;;;;;;15.88;7.43;;;;;;;13.20;59.80;95286.44;5011694;28;21802;-80
2023/10/24 06:06:05;;;;;;;16.33;6.28;;;;;;;13.27;59.65;95289.78;5011381;28;20025;-82
2023/10/24 06:08:31;;;;;;;15.90;7.05;;;;;;;13.25;59.77;95294.97;5003172;28;20030;-81
2023/10/24 06:11:03;;;;;;;15.43;7.55;;;;;;;13.35;59.75;95297.81;5010716;28;20052;-81
2023/10/24 06:13:29;;;;;;;15.30;6.88;;;;;;;13.40;59.60;95295.25;5027340;28;20390;-82
2023/10/24 06:15:55;;;;;;;20.17;7.20;;;;;;;13.56;59.37;95305.38;5012119;28;20481;-82
2023/10/24 06:18:21;;;;;;;17.85;8.10;;;;;;;13.61;59.41;95296.50;5028059;28;20060;-80
2023/10/24 06:20:47;;;;;;;21.05;9.45;;;;;;;13.70;59.09;95293.81;5011297;28;20024;-79
2023/10/24 06:23:13;;;;;;;18.10;9.15;;;;;;;13.81;58.74;95287.91;5011922;28;20436;-80
2023/10/24 06:25:42;;;;;;;20.02;9.98;;;;;;;13.90;58.40;95295.50;5011017;28;20060;-79
2023/10/24 06:28:08;;;;;;;25.23;10.02;;;;;;;14.04;57.78;95297.75;5028255;28;20094;-80
2023/10/24 06:30:34;;;;;;;21.50;9.27;;;;;;;14.14;57.78;95290.28;5027230;28;20028;-80
2023/10/24 06:33:00;;;;;;;24.75;10.27;;;;;;;14.22;57.20;95291.56;5011509;28;20029;-79
2023/10/24 06:35:25;;;;;;;22.13;9.50;;;;;;;14.27;57.01;95294.50;5027340;28;20055;-79
2023/10/24 06:37:51;;;;;;;18.40;8.38;;;;;;;14.37;56.61;95302.88;5011637;28;20414;-81
2023/10/24 06:40:17;;;;;;;18.13;7.22;;;;;;;14.48;56.15;95294.97;5012615;28;20048;-80
2023/10/24 06:42:43;;;;;;;19.30;9.10;;;;;;;14.58;55.95;95293.78;5027594;28;20025;-81
2023/10/24 06:45:10;;;;;;;26.60;11.75;;;;;;;14.73;55.60;95299.53;5012060;28;20057;-81
2023/10/24 06:47:36;;;;;;;25.30;14.07;;;;;;;14.76;55.33;95282.03;5027755;28;20036;-80
2023/10/24 06:50:02;;;;;;;30.80;13.90;;;;;;;14.83;55.10;95295.56;5011784;28;20025;-80
2023/10/24 06:52:27;;;;;;;25.52;13.25;;;;;;;14.96;54.83;95292.69;5010624;28;20044;-80
2023/10/24 06:54:56;;;;;;;24.52;10.95;;;;;;;15.02;54.66;95288.84;5010745;28;20044;-77
2023/10/24 06:57:22;;;;;;;23.17;10.48;;;;;;;15.11;54.35;95291.66;5010469;28;20051;-79
2023/10/24 06:59:47;;;;;;;21.90;10.30;;;;;;;15.19;54.21;95292.13;5027267;28;20033;-79
2023/10/24 07:02:13;;;;;;;24.75;11.23;;;;;;;15.35;53.70;95288.31;5011302;28;20431;-80
2023/10/24 07:04:38;;;;;;;24.20;11.02;;;;;;;15.36;54.05;95287.84;5010119;28;20029;-78
2023/10/24 07:07:04;;;;;;;23.35;12.10;;;;;;;15.45;53.86;95283.56;5011020;28;20069;-77
2023/10/24 07:09:29;;;;;;;21.33;10.43;;;;;;;15.54;53.77;95286.31;5006523;28;20033;-79
2023/10/24 07:11:54;;;;;;;19.90;10.25;;;;;;;15.63;53.22;95273.28;5026920;28;20030;-80
2023/10/24 07:14:20;;;;;;;21.35;8.40;;;;;;;15.77;53.44;95283.00;4996874;28;20397;-79
2023/10/24 07:16:46;;;;;;;19.88;8.27;;;;;;;15.87;53.32;95283.75;4990966;28;20056;-79
2023/10/24 07:19:11;;;;;;;22.13;8.05;;;;;;;15.97;52.93;95276.97;5009921;28;20041;-79
2023/10/24 07:21:37;;;;;;;18.85;7.68;;;;;;;16.14;52.71;95271.84;5010310;28;20460;-79
2023/10/24 07:24:02;;;;;;;19.02;6.10;;;;;;;16.27;52.46;95264.13;5010723;28;20091;-79
2023/10/24 07:26:28;;;;;;;19.73;9.50;;;;;;;16.44;51.99;95261.75;5026555;28;20135;-79
2023/10/24 07:28:53;;;;;;;22.90;9.25;;;;;;;16.60;51.21;95261.41;5027195;28;20035;-79
2023/10/24 07:31:19;;;;;;;21.70;8.75;;;;;;;16.69;51.16;95261.38;5009360;28;20112;-78
2023/10/24 07:33:46;;;;;;;25.52;8.77;;;;;;;16.84;50.83;95255.91;5010730;28;20049;-79
2023/10/24 07:36:11;;;;;;;19.13;6.82;;;;;;;17.14;50.37;95253.28;5010704;28;20107;-80
2023/10/24 07:38:37;;;;;;;24.25;10.43;;;;;;;17.43;49.44;95253.44;5010570;28;20029;-79
2023/10/24 07:41:03;;;;;;;18.33;8.18;;;;;;;17.63;48.90;95258.34;5045445;28;20041;-80
2023/10/24 07:43:29;;;;;;;16.73;7.82;;;;;;;17.91;48.43;95261.72;5045051;28;20028;-78
2023/10/24 07:45:54;;;;;;;24.38;6.70;;;;;;;18.23;47.98;95254.44;5010974;28;20032;-80
2023/10/24 07:48:20;;;;;;;23.13;6.85;;;;;;;18.53;46.95;95251.66;5026762;28;20029;-80
2023/10/24 07:50:52;;;;;;;16.25;6.57;;;;;;;18.84;46.58;95254.69;5027332;28;20025;-79
2023/10/24 07:53:19;;;;;;;19.23;7.43;;;;;;;19.12;45.63;95243.19;5005912;28;20530;-80
2023/10/24 07:55:44;;;;;;;22.25;7.13;;;;;;;19.36;45.23;95240.22;5010306;28;20307;-80
2023/10/24 07:58:10;;;;;;;18.50;7.05;;;;;;;19.68;44.37;95234.81;5010665;28;20128;-79
2023/10/24 08:00:35;;;;;;;18.30;7.03;;;;;;;20.05;43.62;95244.09;5010240;28;20029;-81
2023/10/24 08:03:00;;;;;;;14.75;6.78;;;;;;;20.39;43.02;95244.41;5011124;28;20128;-79
2023/10/24 08:05:26;;;;;;;21.00;7.25;;;;;;;20.80;42.36;95250.59;5010021;28;20033;-79
2023/10/24 08:07:51;;;;;;;20.20;8.27;;;;;;;21.14;41.42;95250.81;5010503;28;20037;-78
2023/10/24 08:10:17;;;;;;;21.52;8.15;;;;;;;21.59;40.48;95248.31;5026216;28;20865;-80
2023/10/24 08:12:42;;;;;;;21.52;6.90;;;;;;;21.93;39.62;95243.59;5026890;28;20495;-80
2023/10/24 08:15:08;;;;;;;21.25;7.93;;;;;;;22.44;38.85;95241.69;5026900;28;20025;-80
2023/10/24 08:17:34;;;;;;;18.92;5.47;;;;;;;22.80;37.54;95235.06;5010067;28;20029;-80
2023/10/24 08:19:59;;;;;;;13.88;5.13;;;;;;;23.22;36.39;95233.22;5010707;28;20051;-80
2023/10/24 08:22:25;;;;;;;12.75;4.47;;;;;;;23.75;35.90;95231.31;5009952;28;20175;-80
2023/10/24 08:24:50;;;;;;;16.10;5.18;;;;;;;24.33;35.05;95222.81;5010571;28;20028;-80
2023/10/24 08:27:15;;;;;;;12.63;4.80;;;;;;;25.02;33.43;95226.63;5009888;28;20524;-79
2023/10/24 08:29:41;;;;;;;12.73;4.85;;;;;;;25.66;32.40;95227.75;5029816;28;20118;-79
2023/10/24 08:32:07;;;;;;;18.70;5.25;;;;;;;26.24;31.24;95226.50;5012835;28;20052;-81
2023/10/24 08:34:36;;;;;;;13.57;4.85;;;;;;;26.73;30.64;95215.03;5012649;28;20037;-82
2023/10/24 08:37:05;;;;;;;18.15;5.75;;;;;;;27.06;29.55;95221.38;4998466;28;20499;-82
2023/10/24 08:39:30;;;;;;;20.88;5.32;;;;;;;27.21;29.07;95205.50;5011878;28;20174;-82
2023/10/24 08:41:59;;;;;;;16.95;5.43;;;;;;;27.44;28.99;95205.81;5013591;28;20115;-82
2023/10/24 08:44:26;;;;;;;13.95;4.53;;;;;;;27.85;28.37;95204.50;5030188;28;20036;-82
2023/10/24 08:46:52;;;;;;;15.48;4.70;;;;;;;28.18;27.80;95202.28;5047738;28;20464;-82
2023/10/24 08:49:18;;;;;;;17.75;5.03;;;;;;;28.55;27.36;95198.34;5046366;28;20026;-82
2023/10/24 08:51:45;;;;;;;19.70;6.40;;;;;;;28.76;27.17;95201.19;5030144;28;20021;-82
2023/10/24 08:54:11;;;;;;;18.35;5.43;;;;;;;28.82;27.06;95202.56;5029840;28;20075;-82
2023/10/24 08:56:39;;;;;;;13.20;5.18;;;;;;;28.86;26.84;95207.13;5012951;28;20491;-82
2023/10/24 08:59:08;;;;;;;14.95;5.28;;;;;;;28.86;26.73;95202.25;5013615;28;20029;-82
2023/10/24 09:01:35;;;;;;;16.80;5.80;;;;;;;28.85;26.36;95192.25;5029226;28;20033;-82
2023/10/24 09:04:00;;;;;;;17.73;5.63;;;;;;;28.75;26.52;95189.13;5013617;28;20391;-82
2023/10/24 09:06:26;;;;;;;15.07;5.38;;;;;;;28.67;27.02;95185.47;5012694;28;20032;-82
2023/10/24 09:08:52;;;;;;;17.30;6.35;;;;;;;28.57;27.29;95175.97;5029445;28;20079;-82
2023/10/24 09:11:17;;;;;;;18.15;5.93;;;;;;;28.50;27.17;95174.56;5029302;28;20021;-82
2023/10/24 09:13:43;;;;;;;15.88;6.90;;;;;;;28.40;27.13;95172.78;5012879;28;20033;-82
2023/10/24 09:16:10;;;;;;;22.60;6.55;;;;;;;28.38;27.58;95169.72;5013100;28;20039;-82
2023/10/24 09:18:39;;;;;;;21.60;6.45;;;;;;;28.38;27.43;95173.31;5028966;28;20028;-82
2023/10/24 09:21:07;;;;;;;16.95;6.28;;;;;;;28.20;27.36;95168.56;5029667;28;20028;-82
2023/10/24 09:23:35;;;;;;;14.07;5.38;;;;;;;28.08;27.57;95153.94;5012749;28;20086;-82
2023/10/24 09:26:05;;;;;;;18.98;6.53;;;;;;;28.27;27.34;95165.84;5012917;28;20032;-82
2023/10/24 09:28:33;;;;;;;15.90;6.07;;;;;;;28.70;26.61;95169.47;5029075;28;20029;-82
2023/10/24 09:30:59;;;;;;;18.05;6.30;;;;;;;29.20;26.28;95173.09;5029034;28;20488;-81
2023/10/24 09:33:26;;;;;;;16.45;5.80;;;;;;;29.68;25.20;95168.69;5012938;28;20049;-82
2023/10/24 09:35:52;;;;;;;17.05;5.88;;;;;;;29.89;25.26;95163.69;5012009;28;20132;-83
2023/10/24 09:38:19;;;;;;;18.73;6.05;;;;;;;30.20;24.44;95168.72;5029304;28;20029;-82
2023/10/24 09:40:45;;;;;;;17.52;5.45;;;;;;;30.42;24.27;95165.94;5012059;28;20120;-83
2023/10/24 09:43:21;;;;;;;19.25;5.32;;;;;;;30.81;23.98;95157.50;5012506;28;20121;-81
2023/10/24 09:45:51;;;;;;;15.68;5.35;;;;;;;31.15;23.42;95148.59;5028668;28;20029;-81
2023/10/24 09:48:17;;;;;;;19.23;5.85;;;;;;;31.51;23.16;95154.03;5012418;28;20114;-83
2023/10/24 09:50:43;;;;;;;26.92;6.80;;;;;;;31.87;23.23;95148.06;5029416;28;20460;-82
2023/10/24 09:53:11;;;;;;;19.15;7.70;;;;;;;32.10;22.28;95142.28;5028545;28;20033;-82
2023/10/24 09:55:41;;;;;;;17.00;5.68;;;;;;;32.25;22.45;95145.06;5012593;28;20033;-81
2023/10/24 09:58:08;;;;;;;25.33;8.75;;;;;;;32.44;22.33;95143.81;5011494;28;20024;-81
2023/10/24 10:00:33;;;;;;;23.23;6.93;;;;;;;32.84;21.91;95138.03;5012220;28;20032;-82
2023/10/24 10:02:59;;;;;;;17.48;5.88;;;;;;;33.05;21.26;95132.00;5011779;28;20029;-82
2023/10/24 10:05:28;;;;;;;22.75;8.80;;;;;;;33.12;21.16;95136.13;5028669;28;20506;-83
2023/10/24 10:07:54;;;;;;;19.25;7.07;;;;;;;33.23;21.17;95129.94;5028453;28;20434;-83
2023/10/24 10:10:20;;;;;;;17.88;5.65;;;;;;;33.23;21.03;95127.09;5045737;28;20487;-83
2023/10/24 10:12:46;;;;;;;17.45;5.38;;;;;;;33.27;21.30;95133.13;5012462;28;20073;-83
2023/10/24 10:15:21;;;;;;;14.25;5.03;;;;;;;33.15;21.20;95121.47;5011296;28;20028;-82
2023/10/24 10:18:00;;;;;;;15.85;4.45;;;;;;;33.19;20.79;95123.91;5028487;28;20091;-82
2023/10/24 10:20:56;;;;;;;18.70;5.70;;;;;;;33.03;21.30;95114.72;5028166;28;20079;-83
2023/10/24 10:23:56;;;;;;;12.70;4.63;;;;;;;32.82;21.26;95102.97;5027886;28;20101;-83
2023/10/24 10:26:46;;;;;;;15.45;5.10;;;;;;;33.02;21.56;95111.13;5028343;28;20032;-82
2023/10/24 10:29:16;;;;;;;20.20;6.38;;;;;;;33.18;21.32;95111.75;5045732;28;20052;-83
2023/10/24 10:32:13;;;;;;;22.38;8.23;;;;;;;33.12;21.25;95102.69;5011636;28;20086;-82
2023/10/24 10:34:38;;;;;;;16.67;5.28;;;;;;;32.88;21.82;95095.72;5028089;28;20029;-82
2023/10/24 10:37:05;;;;;;;17.63;5.50;;;;;;;32.84;21.76;95089.66;5010923;28;20147;-83
2023/10/24 10:39:30;;;;;;;18.73;5.10;;;;;;;32.65;21.70;95086.59;5028162;28;20044;-83
2023/10/24 10:41:56;;;;;;;21.35;5.05;;;;;;;32.51;21.77;95080.44;5011126;28;20025;-83
2023/10/24 10:44:39;;;;;;;26.80;5.65;;;;;;;32.55;22.25;95075.09;5011049;28;20029;-83
2023/10/24 10:47:07;;;;;;;19.17;4.97;;;;;;;32.43;22.09;95071.97;5028733;28;20025;-82
2023/10/24 10:49:41;;;;;;;18.38;5.22;;;;;;;32.54;22.23;95062.22;5010815;28;20044;-83
2023/10/24 10:52:11;;;;;;;14.52;4.57;;;;;;;32.50;22.07;95056.16;5045528;28;20033;-83
2023/10/24 10:55:08;;;;;;;15.45;6.78;;;;;;;32.63;21.74;95057.94;5027367;28;20462;-82
2023/10/24 10:57:47;;;;;;;20.23;5.65;;;;;;;32.76;21.88;95051.97;5045003;28;20065;-83
2023/10/24 11:00:15;;;;;;;15.07;4.85;;;;;;;32.84;21.45;95038.41;5011485;28;20610;-83
2023/10/24 11:02:44;;;;;;;18.52;4.55;;;;;;;32.74;21.50;95035.47;5010869;28;20103;-83
2023/10/24 11:05:39;;;;;;;20.05;4.80;;;;;;;33.00;20.85;95025.56;5027692;28;20029;-83
2023/10/24 11:08:07;;;;;;;17.13;4.32;;;;;;;33.18;20.98;95032.00;5001076;28;20083;-83
2023/10/24 11:10:55;;;;;;;16.73;4.75;;;;;;;33.41;20.74;95025.31;5027488;28;20033;-83
2023/10/24 11:13:39;;;;;;;12.98;4.68;;;;;;;33.47;20.88;95018.03;5027857;28;20120;-83
2023/10/24 11:16:06;;;;;;;21.95;5.75;;;;;;;33.79;20.69;95019.16;5027015;28;20032;-83
2023/10/24 11:18:33;;;;;;;16.80;4.70;;;;;;;33.99;20.15;95009.38;5010758;28;20048;-82
2023/10/24 11:21:00;;;;;;;22.85;5.43;;;;;;;33.90;20.58;94998.66;5010704;28;20468;-83
2023/10/24 11:23:26;;;;;;;16.38;5.10;;;;;;;34.03;20.27;95003.25;5027104;28;20040;-83